PST,Max TemperatureF,Mean TemperatureF,Min TemperatureF,Max Dew PointF,MeanDew PointF,Min DewpointF,Max Humidity, Mean Humidity, Min Humidity, Max Sea Level PressureIn, Mean Sea Level PressureIn, Min Sea Level PressureIn, Max VisibilityMiles, Mean VisibilityMiles, Min VisibilityMiles, Max Wind SpeedMPH, Mean Wind SpeedMPH, Max Gust SpeedMPH,PrecipitationIn, CloudCover, Events, WindDirDegrees
2012-11-1,59,57,55,55,54,50,100,94,80,30.05,29.96,29.79,10,9,0,20,11,30,0.17,6,,184
2012-11-2,59,54,48,57,52,48,100,97,80,30.04,30.00,29.96,10,10,7,8,5,,0.12,6,,148
2012-11-3,61,58,55,59,57,54,100,95,90,30.19,30.13,29.99,10,10,5,14,4,17,0.00,8,,198
2012-11-4,70,64,57,61,59,55,100,96,73,30.36,30.30,30.20,10,6,0,9,4,,0.00,5,,214
2012-11-5,64,57,50,61,56,48,100,97,87,30.36,30.24,30.08,10,3,0,12,3,20,0.00,6,,347
2012-11-6,61,55,48,59,54,48,100,98,93,30.19,30.10,30.05,10,4,0,13,4,,0.01,8,,325
2012-11-7,57,50,43,54,47,43,100,91,57,30.22,30.14,29.95,10,8,0,10,5,,0.00,2,,103
2012-11-8,48,46,43,45,44,41,100,96,92,29.94,29.83,29.80,10,10,7,10,7,,0.43,7,,151
2012-11-9,50,45,39,45,42,39,100,95,74,29.98,29.93,29.88,10,10,6,12,6,,0.33,6,Thunderstorm,156
2012-11-10,52,46,39,45,42,37,100,94,77,30.24,30.12,29.97,10,10,7,15,7,,0.29,5,,140
2012-11-11,52,48,43,46,44,41,100,88,77,30.28,30.24,30.21,10,10,10,14,10,17,0.01,7,,148
2012-11-12,57,53,48,54,51,46,100,94,80,30.26,30.22,30.17,10,9,2,15,8,28,0.20,7,,161
2012-11-13,59,53,46,54,51,46,100,95,80,30.25,30.20,30.17,10,7,0,8,4,,0.10,5,,154
2012-11-14,61,53,45,52,47,43,100,90,64,30.26,30.21,30.14,10,10,3,10,5,,0.00,0,,51
2012-11-15,55,46,37,50,45,37,100,94,77,30.13,30.01,29.93,10,6,0,6,3,6,0.00,0,,2
2012-11-16,64,55,45,52,49,45,100,86,60,29.94,29.86,29.73,10,9,0,10,7,22,0.00,6,,160
2012-11-17,55,50,45,55,48,43,100,96,92,29.87,29.73,29.63,10,8,2,22,10,31,1.07,7,,163
2012-11-18,57,52,46,54,48,45,100,91,80,29.88,29.80,29.72,10,10,5,18,14,30,0.36,8,Thunderstorm,159
2012-11-19,61,58,54,57,54,52,100,92,78,29.79,29.70,29.61,10,8,0,32,18,59,1.87,8,,183
2012-11-20,59,54,48,54,51,46,100,93,75,29.79,29.73,29.66,10,9,6,23,13,35,1.11,6,,181
2012-11-21,54,49,43,48,45,41,100,86,71,30.31,30.09,29.72,10,10,4,21,10,37,0.31,5,Thunderstorm,201
2012-11-22,55,48,41,48,44,41,100,92,66,30.33,30.29,30.25,10,10,10,9,6,10,0.00,3,,144
2012-11-23,61,53,45,55,48,43,100,88,72,30.28,30.23,30.17,10,9,2,12,8,18,0.26,7,,166
2012-11-24,55,49,43,55,50,43,100,98,93,30.26,30.23,30.21,10,5,0,13,7,18,0.83,7,,347
2012-11-25,52,46,39,45,41,37,100,92,71,30.24,30.15,30.00,10,7,0,12,5,18,0.00,2,,36
2012-11-26,55,46,37,50,44,36,100,94,77,30.05,30.02,29.99,10,10,6,9,5,,0.00,6,,147
2012-11-27,54,49,43,50,46,41,100,93,83,30.04,29.95,29.80,10,10,10,9,6,,0.00,4,,149
2012-11-28,63,55,46,54,48,45,100,84,64,29.79,29.65,29.55,10,9,2,23,11,29,0.13,6,,152
2012-11-29,61,56,50,54,49,45,100,88,62,29.65,29.56,29.47,10,9,2,21,11,32,0.67,8,,154
2012-11-30,61,58,54,55,52,46,93,83,72,29.57,29.52,29.43,10,10,7,30,18,43,0.34,6,Thunderstorm,190